createdAt,value
2023-01-11T00:01:56.858Z,4.10
2023-01-11T00:04:30.334Z,5.65
2023-01-11T00:06:57.899Z,4.72
2023-01-11T00:09:24.661Z,5.05
2023-01-11T00:11:51.471Z,4.78
2023-01-11T00:14:18.147Z,4.53
2023-01-11T00:16:44.985Z,5.00
2023-01-11T00:19:11.741Z,5.40
2023-01-11T00:21:38.608Z,5.47
2023-01-11T00:24:05.888Z,3.88
2023-01-11T00:26:32.619Z,3.42
2023-01-11T00:28:59.206Z,2.33
2023-01-11T00:31:26.116Z,3.40
2023-01-11T00:33:52.879Z,3.45
2023-01-11T00:36:19.742Z,2.75
2023-01-11T00:38:53.955Z,2.40
2023-01-11T00:41:40.851Z,2.10
2023-01-11T00:44:28.692Z,2.20
2023-01-11T00:47:14.529Z,1.75
2023-01-11T00:49:41.728Z,1.55
2023-01-11T00:52:09.763Z,1.77
2023-01-11T00:54:40.909Z,1.27
2023-01-11T00:57:08.219Z,1.67
2023-01-11T00:59:36.051Z,1.10
2023-01-11T01:02:03.953Z,1.13
2023-01-11T01:04:31.046Z,1.30
2023-01-11T01:06:57.937Z,1.45
2023-01-11T01:09:24.989Z,1.30
2023-01-11T01:11:51.805Z,1.17
2023-01-11T01:14:29.345Z,1.10
2023-01-11T01:17:02.900Z,1.40
2023-01-11T01:19:31.226Z,1.50
2023-01-11T01:21:59.476Z,1.10
2023-01-11T01:24:30.957Z,1.17
2023-01-11T01:26:58.719Z,1.58
2023-01-11T01:29:25.909Z,1.38
2023-01-11T01:31:52.798Z,1.65
2023-01-11T01:34:19.447Z,1.25
2023-01-11T01:36:46.219Z,1.30
2023-01-11T01:39:13.240Z,1.75
2023-01-11T01:41:39.944Z,1.48
2023-01-11T01:44:45.012Z,1.30
2023-01-11T01:47:12.711Z,1.30
2023-01-11T01:49:40.858Z,1.50
2023-01-11T01:52:08.912Z,1.20
2023-01-11T01:54:39.289Z,1.13
2023-01-11T01:57:13.301Z,1.15
2023-01-11T01:59:41.622Z,1.35
2023-01-11T02:02:08.862Z,0.93
2023-01-11T02:04:42.206Z,0.95
2023-01-11T02:07:16.366Z,1.50
2023-01-11T02:10:01.319Z,0.80
2023-01-11T02:12:32.678Z,0.85
2023-01-11T02:15:00.698Z,0.90
2023-01-11T02:17:27.541Z,0.80
2023-01-11T02:20:02.281Z,1.02
2023-01-11T02:22:32.036Z,0.80
2023-01-11T02:25:23.203Z,1.30
2023-01-11T02:27:52.626Z,0.80
2023-01-11T02:30:26.891Z,0.90
2023-01-11T02:33:13.262Z,1.25
2023-01-11T02:35:45.499Z,1.10
2023-01-11T02:38:29.867Z,1.33
2023-01-11T02:41:04.092Z,1.70
2023-01-11T02:44:14.216Z,2.25
2023-01-11T02:46:48.732Z,1.65
2023-01-11T02:49:31.921Z,1.60
2023-01-11T02:52:12.982Z,1.92
2023-01-11T02:54:43.676Z,1.88
2023-01-11T02:57:12.078Z,2.15
2023-01-11T02:59:40.756Z,1.88
2023-01-11T03:02:07.616Z,2.85
2023-01-11T03:04:36.948Z,1.80
2023-01-11T03:07:31.549Z,1.83
2023-01-11T03:10:35.790Z,1.70
2023-01-11T03:13:31.971Z,1.67
2023-01-11T03:16:38.506Z,2.22
2023-01-11T03:19:11.042Z,1.98
2023-01-11T03:21:59.714Z,1.60
2023-01-11T03:25:06.197Z,1.80
2023-01-11T03:27:46.209Z,1.63
2023-01-11T03:30:29.029Z,1.38
2023-01-11T03:33:06.616Z,1.30
2023-01-11T03:35:43.247Z,1.55
2023-01-11T03:38:24.908Z,1.00
2023-01-11T03:41:00.950Z,1.27
2023-01-11T03:43:29.425Z,1.20
2023-01-11T03:46:02.771Z,1.75
2023-01-11T03:48:35.957Z,1.33
2023-01-11T03:51:05.318Z,1.50
2023-01-11T03:53:36.444Z,1.50
2023-01-11T03:56:07.210Z,1.35
2023-01-11T03:58:34.010Z,1.20
2023-01-11T04:01:01.569Z,0.93
2023-01-11T04:03:29.041Z,0.98
2023-01-11T04:06:00.216Z,1.08
2023-01-11T04:08:27.458Z,1.40
2023-01-11T04:10:54.391Z,1.20
2023-01-11T04:13:21.128Z,1.15
2023-01-11T04:15:47.785Z,1.10
2023-01-11T04:18:14.448Z,0.85
2023-01-11T04:20:41.437Z,0.88
2023-01-11T04:23:12.127Z,0.65
2023-01-11T04:25:38.891Z,0.93
2023-01-11T04:28:05.606Z,0.82
2023-01-11T04:30:32.485Z,0.70
2023-01-11T04:32:59.608Z,0.60
2023-01-11T04:35:26.630Z,0.60
2023-01-11T04:37:55.155Z,0.68
2023-01-11T04:40:22.061Z,0.50
2023-01-11T04:42:48.896Z,0.52
2023-01-11T04:45:15.895Z,0.60
2023-01-11T04:47:42.555Z,0.55
2023-01-11T04:50:11.751Z,0.90
2023-01-11T04:52:40.632Z,0.98
2023-01-11T04:55:08.173Z,0.75
2023-01-11T04:57:34.791Z,0.57
2023-01-11T05:00:01.494Z,0.55
2023-01-11T05:02:28.164Z,0.75
2023-01-11T05:04:54.899Z,0.73
2023-01-11T05:07:21.587Z,0.80
2023-01-11T05:09:48.290Z,0.68
2023-01-11T05:12:14.850Z,0.60
2023-01-11T05:14:41.611Z,0.60
2023-01-11T05:17:13.337Z,0.60
2023-01-11T05:19:40.062Z,0.60
2023-01-11T05:22:07.666Z,0.80
2023-01-11T05:24:34.508Z,0.70
2023-01-11T05:27:01.120Z,0.88
2023-01-11T05:29:28.568Z,0.68
2023-01-11T05:31:55.359Z,1.58
2023-01-11T05:34:22.225Z,0.90
2023-01-11T05:36:48.877Z,1.02
2023-01-11T05:39:15.785Z,1.13
2023-01-11T05:41:42.794Z,0.80
2023-01-11T05:44:32.074Z,0.90
2023-01-11T05:46:59.508Z,1.17
2023-01-11T05:49:26.345Z,1.30
2023-01-11T05:51:53.262Z,1.05
2023-01-11T05:54:19.926Z,0.90
2023-01-11T05:56:46.731Z,1.10
2023-01-11T05:59:13.434Z,1.10
2023-01-11T06:01:40.390Z,1.05
2023-01-11T06:04:08.532Z,1.10
2023-01-11T06:06:35.712Z,1.23
2023-01-11T06:09:02.406Z,0.85
2023-01-11T06:11:29.174Z,1.10
2023-01-11T06:13:55.882Z,1.00
2023-01-11T06:16:23.718Z,1.10
2023-01-11T06:18:52.483Z,0.90
2023-01-11T06:21:20.232Z,1.13
2023-01-11T06:23:50.922Z,1.38
2023-01-11T06:26:21.050Z,1.45
2023-01-11T06:28:48.553Z,0.93
2023-01-11T06:31:17.553Z,0.93
2023-01-11T06:33:45.316Z,0.95
2023-01-11T06:36:13.644Z,1.20
2023-01-11T06:38:41.460Z,0.60
2023-01-11T06:41:09.482Z,1.00
2023-01-11T06:43:38.178Z,0.60
2023-01-11T06:46:05.569Z,0.90
2023-01-11T06:48:32.302Z,1.63
2023-01-11T06:50:59.681Z,1.00
2023-01-11T06:53:29.095Z,0.90
2023-01-11T06:55:58.170Z,1.13
2023-01-11T06:58:26.148Z,1.10
2023-01-11T07:00:55.196Z,0.88
2023-01-11T07:03:24.124Z,0.82
2023-01-11T07:05:52.626Z,1.08
2023-01-11T07:08:20.329Z,1.10
2023-01-11T07:10:47.276Z,1.33
2023-01-11T07:13:17.588Z,1.35
2023-01-11T07:15:46.160Z,1.08
2023-01-11T07:18:12.945Z,0.90
2023-01-11T07:20:40.944Z,0.98
2023-01-11T07:23:08.010Z,0.95
2023-01-11T07:25:35.142Z,1.65
2023-01-11T07:28:05.485Z,1.70
2023-01-11T07:30:51.767Z,1.50
2023-01-11T07:33:22.643Z,1.33
2023-01-11T07:35:49.685Z,1.20
2023-01-11T07:38:16.536Z,0.90
2023-01-11T07:40:43.313Z,1.05
2023-01-11T07:43:14.619Z,1.58
2023-01-11T07:45:46.730Z,0.98
2023-01-11T07:48:15.169Z,1.42
2023-01-11T07:50:44.827Z,1.10
2023-01-11T07:53:13.260Z,1.48
2023-01-11T07:55:40.802Z,0.90
2023-01-11T07:58:08.733Z,1.27
2023-01-11T08:00:35.427Z,1.83
2023-01-11T08:03:02.934Z,1.08
2023-01-11T08:05:29.798Z,1.40
2023-01-11T08:07:56.642Z,1.20
2023-01-11T08:10:23.461Z,2.05
2023-01-11T08:13:09.074Z,0.77
2023-01-11T08:15:42.541Z,1.50
2023-01-11T08:18:11.332Z,1.30
2023-01-11T08:20:39.110Z,1.40
2023-01-11T08:23:07.372Z,1.20
2023-01-11T08:25:34.309Z,1.50
2023-01-11T08:28:02.958Z,1.75
2023-01-11T08:30:30.087Z,1.55
2023-01-11T08:32:57.605Z,1.80
2023-01-11T08:35:27.705Z,2.35
2023-01-11T08:37:54.522Z,1.38
2023-01-11T08:40:23.910Z,1.50
2023-01-11T08:42:57.544Z,1.73
2023-01-11T08:45:25.159Z,2.50
2023-01-11T08:47:52.015Z,1.52
2023-01-11T08:50:19.459Z,2.50
2023-01-11T08:52:47.296Z,2.10
2023-01-11T08:55:13.995Z,2.08
2023-01-11T08:57:40.780Z,1.70
2023-01-11T09:00:08.651Z,2.08
2023-01-11T09:02:35.357Z,2.60
2023-01-11T09:05:02.373Z,1.98
2023-01-11T09:07:29.219Z,2.65
2023-01-11T09:09:56.010Z,1.95
2023-01-11T09:12:22.702Z,2.70
2023-01-11T09:14:49.433Z,2.67
2023-01-11T09:17:16.032Z,2.20
2023-01-11T09:19:42.877Z,2.60
2023-01-11T09:22:09.551Z,2.80
2023-01-11T09:24:36.206Z,2.90
2023-01-11T09:27:04.879Z,2.72
2023-01-11T09:29:32.196Z,2.10
2023-01-11T09:31:59.156Z,2.63
2023-01-11T09:34:27.403Z,2.20
2023-01-11T09:36:56.566Z,2.15
2023-01-11T09:39:26.392Z,2.40
2023-01-11T09:42:15.275Z,2.28
2023-01-11T09:44:49.723Z,2.53
2023-01-11T09:47:30.202Z,2.05
2023-01-11T09:50:00.639Z,2.80
2023-01-11T09:52:33.173Z,2.58
2023-01-11T09:55:01.406Z,2.50
2023-01-11T09:57:55.625Z,3.13
2023-01-11T10:00:40.301Z,3.13
2023-01-11T10:03:39.219Z,3.05
2023-01-11T10:06:06.771Z,2.88
2023-01-11T10:18:27.369Z,3.13
2023-01-11T10:18:38.765Z,2.28
2023-01-11T10:20:44.008Z,2.00
2023-01-11T10:23:17.941Z,3.03
2023-01-11T10:25:54.910Z,2.65
2023-01-11T10:28:31.901Z,2.97
2023-01-11T10:30:58.840Z,3.25
2023-01-11T10:33:46.725Z,3.08
2023-01-11T10:37:07.121Z,2.85
2023-01-11T10:40:06.324Z,3.13
2023-01-11T10:42:44.213Z,2.58
2023-01-11T10:45:25.389Z,2.55
2023-01-11T10:48:20.910Z,2.40
2023-01-11T10:51:06.312Z,2.05
2023-01-11T10:53:39.443Z,2.97
2023-01-11T10:56:06.158Z,1.90
2023-01-11T10:58:51.230Z,2.00
2023-01-11T11:01:41.088Z,2.80
2023-01-11T11:04:26.777Z,2.40
2023-01-11T11:07:26.034Z,2.13
2023-01-11T11:10:03.070Z,2.45
2023-01-11T11:12:34.781Z,2.20
2023-01-11T11:15:23.709Z,2.40
2023-01-11T11:17:52.696Z,1.90
2023-01-11T11:20:30.215Z,2.05
2023-01-11T11:22:57.660Z,2.17
2023-01-11T11:25:32.025Z,2.92
2023-01-11T11:28:26.435Z,2.47
2023-01-11T11:30:56.746Z,2.00
2023-01-11T11:33:28.119Z,2.38
2023-01-11T11:36:02.253Z,1.80
2023-01-11T11:38:31.366Z,2.20
2023-01-11T11:41:04.231Z,2.50
2023-01-11T11:43:36.247Z,1.88
2023-01-11T11:46:20.394Z,1.70
2023-01-11T11:49:11.984Z,1.50
2023-01-11T11:51:41.408Z,1.40
2023-01-11T11:54:21.982Z,1.67
2023-01-11T11:56:49.387Z,1.52
2023-01-11T11:59:20.208Z,1.30
2023-01-11T12:01:54.224Z,1.90
2023-01-11T12:04:40.474Z,1.42
2023-01-11T12:07:15.094Z,1.35
2023-01-11T12:09:55.148Z,1.20
2023-01-11T12:12:26.407Z,1.52
2023-01-11T12:15:15.012Z,2.08
2023-01-11T12:17:42.437Z,1.33
2023-01-11T12:20:24.160Z,1.80
2023-01-11T12:23:10.173Z,2.13
2023-01-11T12:25:49.718Z,1.52
2023-01-11T12:29:00.352Z,1.77
2023-01-11T12:31:36.025Z,1.38
2023-01-11T12:36:44.219Z,1.33
2023-01-11T12:39:28.885Z,1.60
2023-01-11T12:42:16.781Z,1.75
2023-01-11T12:44:49.335Z,1.75
2023-01-11T12:47:42.039Z,1.80
2023-01-11T12:50:22.383Z,1.60
2023-01-11T12:52:52.136Z,1.73
2023-01-11T12:55:31.603Z,1.88
2023-01-11T12:58:08.150Z,1.50
2023-01-11T13:00:56.701Z,1.35
2023-01-11T13:03:29.090Z,1.42
2023-01-11T13:06:10.628Z,1.60
2023-01-11T13:08:37.590Z,1.40
2023-01-11T13:11:36.159Z,1.73
2023-01-11T13:14:18.179Z,1.85
2023-01-11T13:17:09.829Z,1.67
2023-01-11T13:19:59.333Z,1.10
2023-01-11T13:22:32.235Z,0.88
2023-01-11T13:25:02.845Z,1.23
2023-01-11T13:27:31.830Z,0.90
2023-01-11T13:30:02.117Z,0.80
2023-01-11T13:32:38.146Z,1.00
2023-01-11T13:35:18.401Z,0.93
2023-01-11T13:38:03.888Z,1.20
2023-01-11T13:40:38.614Z,0.95
2023-01-11T13:43:11.383Z,1.05
2023-01-11T13:45:51.189Z,1.20
2023-01-11T13:48:35.110Z,1.38
2023-01-11T13:51:13.601Z,0.95
2023-01-11T13:53:49.166Z,0.88
2023-01-11T13:58:49.881Z,1.00
2023-01-11T14:01:23.179Z,1.40
2023-01-11T14:03:51.236Z,1.00
2023-01-11T14:06:42.840Z,1.58
2023-01-11T14:09:18.458Z,1.65
2023-01-11T14:15:00.342Z,1.90
2023-01-11T14:17:42.885Z,1.50
2023-01-11T14:20:24.709Z,1.42
2023-01-11T14:23:12.091Z,1.40
2023-01-11T14:26:14.494Z,1.23
2023-01-11T14:29:23.527Z,1.50
2023-01-11T14:32:11.273Z,1.48
2023-01-11T14:34:50.038Z,1.25
2023-01-11T14:37:25.959Z,1.10
2023-01-11T14:40:22.755Z,1.27
2023-01-11T14:43:23.190Z,1.05
2023-01-11T14:45:58.728Z,1.23
2023-01-11T14:48:31.230Z,1.30
2023-01-11T14:51:12.991Z,1.63
2023-01-11T14:54:04.209Z,1.60
2023-01-11T14:56:36.600Z,1.40
2023-01-11T14:59:06.952Z,1.40
2023-01-11T15:02:04.565Z,1.60
2023-01-11T15:04:54.863Z,1.35
2023-01-11T15:07:30.678Z,1.92
2023-01-11T15:10:04.564Z,6.82
2023-01-11T15:12:40.870Z,10.32
2023-01-11T15:15:17.034Z,5.28
2023-01-11T15:18:02.861Z,5.82
2023-01-11T15:20:30.161Z,5.47
2023-01-11T15:23:00.367Z,4.55
2023-01-11T15:25:29.354Z,4.32
2023-01-11T15:27:57.209Z,4.38
2023-01-11T15:30:30.006Z,4.43
2023-01-11T15:33:18.816Z,3.88
2023-01-11T15:35:57.643Z,3.47
2023-01-11T15:38:52.667Z,3.05
2023-01-11T15:42:03.685Z,2.67
2023-01-11T15:44:49.211Z,3.30
2023-01-11T15:47:44.946Z,2.33
2023-01-11T15:50:30.178Z,2.60
2023-01-11T15:53:12.248Z,3.63
2023-01-11T15:55:41.636Z,2.83
2023-01-11T15:58:10.948Z,2.92
2023-01-11T16:01:02.424Z,2.47
2023-01-11T16:03:49.739Z,3.10
2023-01-11T16:06:32.005Z,2.83
2023-01-11T16:09:29.294Z,3.17
2023-01-11T16:12:08.385Z,3.60
2023-01-11T16:15:18.060Z,5.00
2023-01-11T16:17:47.195Z,14.27
2023-01-11T16:20:19.915Z,4.68
2023-01-11T16:22:51.809Z,2.55
2023-01-11T16:25:21.027Z,2.33
2023-01-11T16:27:53.637Z,2.67
2023-01-11T16:30:21.144Z,2.63
2023-01-11T16:32:47.908Z,2.15
2023-01-11T16:35:25.184Z,2.88
2023-01-11T16:37:58.042Z,3.13
2023-01-11T16:40:36.042Z,3.42
2023-01-11T16:43:08.514Z,3.95
2023-01-11T16:45:44.009Z,8.07
2023-01-11T16:48:10.657Z,8.52
2023-01-11T16:50:37.457Z,5.63
2023-01-11T16:53:06.136Z,6.20
2023-01-11T16:55:38.443Z,5.18
2023-01-11T16:58:17.453Z,5.72
2023-01-11T17:01:04.640Z,8.40
2023-01-11T17:03:34.080Z,11.30
2023-01-11T17:06:22.669Z,8.23
2023-01-11T17:08:56.834Z,7.07
2023-01-11T17:11:26.042Z,6.65
2023-01-11T17:14:11.195Z,5.68
2023-01-11T17:16:40.693Z,6.40
2023-01-11T17:19:16.691Z,5.43
2023-01-11T17:21:54.617Z,5.05
2023-01-11T17:24:25.927Z,5.00
2023-01-11T17:26:59.864Z,5.15
2023-01-11T17:29:31.701Z,7.95
2023-01-11T17:32:00.856Z,6.50
2023-01-11T17:34:35.938Z,7.35
2023-01-11T17:37:10.408Z,8.98
2023-01-11T17:39:42.758Z,10.30
2023-01-11T17:42:31.369Z,7.15
2023-01-11T17:45:14.899Z,7.22
2023-01-11T17:47:45.661Z,8.13
2023-01-11T17:50:31.418Z,7.35
2023-01-11T17:53:12.760Z,6.82
2023-01-11T17:55:51.145Z,7.28
2023-01-11T17:58:21.925Z,6.65
2023-01-11T18:01:18.333Z,6.63
2023-01-11T18:06:27.014Z,7.18
2023-01-11T18:08:55.848Z,7.70
2023-01-11T18:11:33.195Z,6.82
2023-01-11T18:14:04.199Z,5.85
2023-01-11T18:16:31.906Z,6.32
2023-01-11T18:18:58.774Z,6.15
2023-01-11T18:21:25.433Z,6.38
2023-01-11T18:24:10.601Z,13.50
2023-01-11T18:26:42.178Z,17.63
2023-01-11T18:29:43.549Z,14.82
2023-01-11T18:32:13.115Z,13.48
2023-01-11T18:34:41.300Z,13.82
2023-01-11T18:37:10.999Z,12.02
2023-01-11T18:39:37.950Z,12.20
2023-01-11T18:42:08.095Z,9.48
2023-01-11T18:47:22.244Z,6.80
2023-01-11T18:49:55.422Z,8.32
2023-01-11T18:52:27.625Z,8.40
2023-01-11T18:54:55.889Z,7.60
2023-01-11T18:57:23.579Z,8.48
2023-01-11T18:59:54.179Z,8.10
2023-01-11T19:02:28.164Z,7.93
2023-01-11T19:04:56.487Z,8.13
2023-01-11T19:07:25.173Z,7.05
2023-01-11T19:09:52.297Z,7.18
2023-01-11T19:12:18.887Z,7.53
2023-01-11T19:14:45.692Z,9.27
2023-01-11T19:17:13.431Z,11.63
2023-01-11T19:19:40.587Z,12.20
2023-01-11T19:22:07.872Z,11.18
2023-01-11T19:24:34.659Z,9.13
2023-01-11T19:27:01.994Z,7.05
2023-01-11T19:29:28.784Z,7.03
2023-01-11T19:31:55.810Z,7.97
2023-01-11T19:34:23.230Z,6.50
2023-01-11T19:36:51.751Z,6.82
2023-01-11T19:39:18.860Z,6.80
2023-01-11T19:41:54.816Z,5.93
2023-01-11T19:44:26.897Z,7.57
2023-01-11T19:47:09.678Z,8.73
2023-01-11T19:49:37.703Z,6.70
2023-01-11T19:52:04.551Z,7.60
2023-01-11T19:54:31.192Z,6.60
2023-01-11T19:56:57.906Z,8.63
2023-01-11T19:59:24.701Z,8.90
2023-01-11T20:01:51.415Z,8.82
2023-01-11T20:04:18.338Z,8.57
2023-01-11T20:06:52.066Z,8.65
2023-01-11T20:09:19.961Z,8.32
2023-01-11T20:11:49.297Z,7.82
2023-01-11T20:14:20.007Z,7.70
2023-01-11T20:16:46.952Z,9.02
2023-01-11T20:19:13.604Z,8.20
2023-01-11T20:21:40.553Z,8.50
2023-01-11T20:24:07.412Z,8.40
2023-01-11T20:26:34.364Z,8.35
2023-01-11T20:29:02.252Z,8.40
2023-01-11T20:31:32.948Z,8.05
2023-01-11T20:34:01.248Z,8.23
2023-01-11T20:36:28.726Z,8.38
2023-01-11T20:38:56.343Z,7.72
2023-01-11T20:41:44.523Z,7.65
2023-01-11T20:44:11.506Z,6.05
2023-01-11T20:46:38.660Z,6.68
2023-01-11T20:49:06.677Z,7.28
2023-01-11T20:51:34.041Z,6.45
2023-01-11T20:54:01.072Z,6.70
2023-01-11T20:56:27.770Z,6.13
2023-01-11T20:58:54.569Z,5.68
2023-01-11T21:01:27.698Z,4.93
2023-01-11T21:03:57.661Z,4.68
2023-01-11T21:06:24.361Z,5.45
2023-01-11T21:08:57.003Z,5.05
2023-01-11T21:11:24.793Z,4.40
2023-01-11T21:13:55.800Z,3.80
2023-01-11T21:16:27.959Z,2.83
2023-01-11T21:18:57.725Z,3.83
2023-01-11T21:21:25.322Z,3.22
2023-01-11T21:24:00.810Z,3.80
2023-01-11T21:26:28.595Z,4.07
2023-01-11T21:29:00.689Z,4.20
2023-01-11T21:31:32.874Z,3.60
2023-01-11T21:33:59.910Z,4.43
2023-01-11T21:36:28.678Z,5.28
2023-01-11T21:38:56.901Z,4.70
2023-01-11T21:41:46.059Z,4.63
2023-01-11T21:44:14.030Z,3.90
2023-01-11T21:46:41.459Z,4.32
2023-01-11T21:49:09.202Z,4.90
2023-01-11T21:51:36.601Z,4.05
2023-01-11T21:54:10.005Z,4.10
2023-01-11T21:56:37.499Z,5.22
2023-01-11T21:59:04.517Z,3.60
2023-01-11T22:01:31.387Z,3.83
2023-01-11T22:03:58.104Z,3.78
2023-01-11T22:06:24.825Z,4.30
2023-01-11T22:08:51.669Z,4.00
2023-01-11T22:11:18.500Z,3.70
2023-01-11T22:13:45.455Z,3.63
2023-01-11T22:16:16.615Z,4.15
2023-01-11T22:18:44.460Z,3.70
2023-01-11T22:21:17.058Z,2.97
2023-01-11T22:23:45.267Z,3.60
2023-01-11T22:26:17.779Z,4.00
2023-01-11T22:29:04.978Z,3.35
2023-01-11T22:31:33.877Z,3.30
2023-01-11T22:34:01.371Z,3.03
2023-01-11T22:36:28.932Z,2.80
2023-01-11T22:38:56.454Z,3.83
2023-01-11T22:41:24.972Z,2.85
2023-01-11T22:43:52.375Z,2.15
2023-01-11T22:46:22.424Z,2.85
2023-01-11T22:48:50.669Z,3.03
2023-01-11T22:51:20.012Z,2.25
2023-01-11T22:53:49.044Z,2.22
2023-01-11T22:56:22.107Z,2.00
2023-01-11T22:58:50.673Z,2.63
2023-01-11T23:01:18.986Z,2.00
2023-01-11T23:03:46.041Z,2.15
2023-01-11T23:06:16.088Z,1.92
2023-01-11T23:08:43.635Z,2.15
2023-01-11T23:11:36.242Z,2.92
2023-01-11T23:14:05.775Z,2.60
2023-01-11T23:16:33.278Z,2.30
2023-01-11T23:19:00.499Z,3.15
2023-01-11T23:21:28.609Z,2.47
2023-01-11T23:23:55.463Z,2.15
2023-01-11T23:26:22.203Z,2.40
2023-01-11T23:28:50.064Z,2.10
2023-01-11T23:31:19.678Z,2.20
2023-01-11T23:33:57.842Z,2.22
2023-01-11T23:36:31.925Z,2.28
2023-01-11T23:38:59.027Z,2.25
2023-01-11T23:41:44.598Z,2.40
2023-01-11T23:44:13.657Z,3.40
2023-01-11T23:46:59.928Z,3.85
2023-01-11T23:49:27.613Z,3.20
2023-01-11T23:51:55.681Z,3.60
2023-01-11T23:54:25.381Z,3.60
2023-01-11T23:56:52.217Z,3.83
2023-01-11T23:59:18.876Z,3.47
